createdAt,value
2022-12-23T00:01:19.353Z,5.11
2022-12-23T00:03:45.985Z,5.03
2022-12-23T00:06:15.613Z,5.15
2022-12-23T00:08:42.874Z,5.04
2022-12-23T00:11:28.704Z,5.02
2022-12-23T00:14:21.469Z,4.96
2022-12-23T00:16:50.353Z,5.01
2022-12-23T00:19:17.091Z,5.00
2022-12-23T00:21:43.683Z,5.01
2022-12-23T00:24:11.756Z,4.97
2022-12-23T00:26:38.649Z,4.92
2022-12-23T00:29:05.202Z,4.93
2022-12-23T00:31:32.367Z,5.07
2022-12-23T00:33:59.021Z,5.15
2022-12-23T00:36:30.332Z,4.97
2022-12-23T00:39:17.102Z,5.01
2022-12-23T00:42:17.748Z,5.10
2022-12-23T00:44:44.399Z,5.18
2022-12-23T00:47:32.285Z,5.17
2022-12-23T00:49:58.805Z,5.15
2022-12-23T00:52:25.427Z,5.15
2022-12-23T00:54:51.967Z,5.05
2022-12-23T00:57:18.486Z,4.96
2022-12-23T00:59:44.997Z,4.94
2022-12-23T01:02:31.756Z,4.98
2022-12-23T01:05:17.066Z,5.05
2022-12-23T01:07:43.697Z,5.08
2022-12-23T01:10:10.523Z,5.15
2022-12-23T01:12:37.078Z,4.98
2022-12-23T01:15:03.996Z,4.94
2022-12-23T01:17:30.502Z,5.01
2022-12-23T01:19:57.095Z,4.98
2022-12-23T01:22:23.677Z,4.95
2022-12-23T01:24:50.206Z,5.03
2022-12-23T01:27:16.744Z,5.00
2022-12-23T01:29:43.309Z,5.04
2022-12-23T01:32:09.883Z,4.95
2022-12-23T01:34:37.663Z,4.99
2022-12-23T01:37:04.934Z,4.97
2022-12-23T01:39:31.471Z,5.01
2022-12-23T01:42:16.683Z,5.12
2022-12-23T01:44:52.124Z,5.18
2022-12-23T01:47:23.446Z,5.13
2022-12-23T01:49:50.834Z,5.14
2022-12-23T01:52:17.696Z,5.16
2022-12-23T01:54:44.787Z,5.08
2022-12-23T01:57:12.773Z,5.10
2022-12-23T01:59:59.053Z,5.07
2022-12-23T02:02:45.326Z,5.06
2022-12-23T02:05:12.291Z,5.13
2022-12-23T02:07:58.495Z,5.17
2022-12-23T02:10:32.355Z,5.15
2022-12-23T02:13:28.157Z,5.21
2022-12-23T02:16:18.836Z,5.15
2022-12-23T02:19:06.963Z,5.20
2022-12-23T02:21:58.143Z,5.17
2022-12-23T02:24:36.330Z,5.29
2022-12-23T02:27:11.165Z,5.17
2022-12-23T02:29:49.416Z,5.16
2022-12-23T02:32:34.756Z,5.26
2022-12-23T02:35:10.421Z,5.26
2022-12-23T02:37:55.785Z,5.31
2022-12-23T02:40:24.934Z,5.29
2022-12-23T02:43:17.553Z,5.32
2022-12-23T02:45:52.495Z,5.21
2022-12-23T02:48:41.865Z,5.31
2022-12-23T02:51:09.671Z,5.37
2022-12-23T02:53:43.152Z,5.36
2022-12-23T02:56:10.657Z,5.23
2022-12-23T02:58:54.649Z,5.33
2022-12-23T03:01:21.296Z,5.36
2022-12-23T03:03:48.268Z,5.37
2022-12-23T03:06:40.183Z,5.39
2022-12-23T03:09:07.481Z,5.38
2022-12-23T03:11:50.760Z,5.34
2022-12-23T03:14:46.674Z,5.21
2022-12-23T03:17:41.178Z,5.21
2022-12-23T03:20:19.683Z,5.22
2022-12-23T03:22:57.758Z,5.25
2022-12-23T03:25:32.729Z,5.38
2022-12-23T03:28:20.293Z,5.30
2022-12-23T03:30:50.766Z,5.30
2022-12-23T03:33:22.791Z,5.32
2022-12-23T03:35:53.999Z,5.30
2022-12-23T03:38:21.969Z,5.39
2022-12-23T03:41:01.862Z,5.39
2022-12-23T03:43:40.516Z,5.36
2022-12-23T03:46:24.241Z,5.37
2022-12-23T03:48:54.413Z,5.32
2022-12-23T03:51:25.387Z,5.25
2022-12-23T03:53:57.612Z,5.25
2022-12-23T03:56:38.283Z,5.26
2022-12-23T03:59:28.684Z,5.38
2022-12-23T04:02:04.376Z,5.37
2022-12-23T04:04:48.024Z,5.33
2022-12-23T04:07:28.000Z,5.28
2022-12-23T04:09:54.778Z,5.32
2022-12-23T04:12:23.399Z,5.29
2022-12-23T04:14:50.365Z,5.29
2022-12-23T04:17:17.445Z,5.29
2022-12-23T04:19:47.783Z,5.32
2022-12-23T04:22:15.463Z,5.29
2022-12-23T04:24:42.732Z,5.17
2022-12-23T04:27:12.976Z,5.21
2022-12-23T04:29:39.602Z,5.22
2022-12-23T04:32:06.312Z,5.32
2022-12-23T04:34:32.853Z,5.38
2022-12-23T04:36:59.429Z,5.36
2022-12-23T04:39:25.931Z,5.23
2022-12-23T04:41:52.475Z,5.26
2022-12-23T04:44:19.007Z,5.29
2022-12-23T04:46:45.636Z,5.22
2022-12-23T04:49:12.165Z,5.22
2022-12-23T04:51:38.728Z,5.31
2022-12-23T04:54:05.438Z,5.23
2022-12-23T04:56:31.970Z,5.20
2022-12-23T04:59:01.539Z,5.24
2022-12-23T05:01:28.924Z,5.14
2022-12-23T05:03:55.776Z,5.10
2022-12-23T05:06:22.324Z,5.22
2022-12-23T05:08:48.915Z,5.35
2022-12-23T05:11:15.483Z,5.37
2022-12-23T05:13:42.020Z,5.38
2022-12-23T05:16:08.656Z,5.25
2022-12-23T05:18:35.173Z,5.11
2022-12-23T05:21:01.835Z,5.18
2022-12-23T05:23:28.438Z,5.17
2022-12-23T05:25:55.032Z,5.13
2022-12-23T05:28:22.186Z,5.28
2022-12-23T05:30:48.903Z,5.22
2022-12-23T05:33:15.802Z,5.29
2022-12-23T05:35:42.442Z,5.28
2022-12-23T05:38:09.087Z,5.28
2022-12-23T05:40:35.690Z,5.18
2022-12-23T05:43:02.707Z,5.09
2022-12-23T05:45:29.306Z,5.03
2022-12-23T05:47:55.925Z,5.20
2022-12-23T05:50:26.453Z,5.11
2022-12-23T05:52:55.818Z,5.22
2022-12-23T05:55:22.356Z,5.27
2022-12-23T05:57:48.895Z,5.23
2022-12-23T06:00:15.710Z,5.19
2022-12-23T06:02:42.965Z,5.12
2022-12-23T06:05:11.293Z,5.16
2022-12-23T06:07:38.665Z,5.04
2022-12-23T06:10:06.935Z,5.11
2022-12-23T06:12:33.629Z,5.13
2022-12-23T06:15:00.207Z,5.12
2022-12-23T06:17:26.958Z,5.09
2022-12-23T06:19:53.639Z,5.10
2022-12-23T06:22:23.506Z,5.14
2022-12-23T06:24:51.115Z,5.24
2022-12-23T06:27:19.268Z,5.37
2022-12-23T06:29:46.068Z,5.22
2022-12-23T06:32:12.601Z,5.20
2022-12-23T06:34:39.138Z,5.21
2022-12-23T06:37:05.715Z,5.24
2022-12-23T06:39:32.347Z,5.08
2022-12-23T06:41:58.927Z,5.07
2022-12-23T06:44:25.458Z,5.17
2022-12-23T06:46:52.168Z,5.00
2022-12-23T06:49:18.723Z,5.16
2022-12-23T06:51:45.244Z,5.01
2022-12-23T06:54:12.148Z,4.93
2022-12-23T06:56:39.157Z,5.09
2022-12-23T06:59:05.684Z,5.11
2022-12-23T07:01:32.361Z,5.07
2022-12-23T07:03:59.007Z,5.19
2022-12-23T07:06:25.717Z,5.04
2022-12-23T07:08:52.297Z,5.07
2022-12-23T07:11:18.834Z,5.18
2022-12-23T07:13:46.177Z,5.08
2022-12-23T07:16:12.730Z,5.17
2022-12-23T07:18:39.329Z,5.26
2022-12-23T07:21:10.162Z,5.20
2022-12-23T07:23:42.254Z,5.27
2022-12-23T07:26:08.750Z,5.22
2022-12-23T07:28:35.397Z,5.22
2022-12-23T07:31:01.955Z,5.19
2022-12-23T07:33:28.539Z,5.17
2022-12-23T07:35:59.166Z,5.18
2022-12-23T07:38:26.033Z,5.14
2022-12-23T07:40:52.557Z,5.19
2022-12-23T07:43:19.092Z,5.09
2022-12-23T07:45:45.793Z,5.14
2022-12-23T07:48:12.384Z,5.14
2022-12-23T07:50:38.916Z,5.16
2022-12-23T07:53:05.489Z,5.14
2022-12-23T07:55:31.979Z,5.10
2022-12-23T07:57:58.490Z,5.07
2022-12-23T08:00:25.180Z,5.07
2022-12-23T08:02:51.799Z,5.09
2022-12-23T08:05:18.781Z,5.12
2022-12-23T08:07:45.462Z,5.09
2022-12-23T08:10:12.522Z,5.07
2022-12-23T08:12:39.025Z,5.05
2022-12-23T08:15:06.592Z,5.01
2022-12-23T08:17:33.166Z,5.00
2022-12-23T08:19:59.720Z,4.94
2022-12-23T08:22:26.279Z,5.08
2022-12-23T08:24:53.238Z,4.95
2022-12-23T08:27:19.812Z,5.07
2022-12-23T08:29:46.421Z,5.05
2022-12-23T08:32:13.033Z,5.02
2022-12-23T08:34:39.574Z,4.98
2022-12-23T08:37:06.297Z,5.04
2022-12-23T08:39:32.955Z,5.01
2022-12-23T08:41:59.688Z,5.13
2022-12-23T08:44:28.276Z,4.97
2022-12-23T08:46:55.342Z,5.15
2022-12-23T08:49:22.089Z,5.05
2022-12-23T08:51:49.132Z,5.17
2022-12-23T08:54:15.917Z,5.08
2022-12-23T08:56:45.145Z,5.12
2022-12-23T08:59:27.892Z,5.03
2022-12-23T09:01:56.768Z,5.13
2022-12-23T09:04:23.513Z,5.26
2022-12-23T09:06:50.075Z,5.19
2022-12-23T09:09:16.793Z,5.15
2022-12-23T09:11:43.747Z,5.13
2022-12-23T09:14:11.162Z,5.18
2022-12-23T09:16:37.872Z,5.11
2022-12-23T09:19:04.773Z,5.24
2022-12-23T09:21:33.361Z,5.22
2022-12-23T09:23:59.914Z,5.20
2022-12-23T09:26:28.963Z,5.23
2022-12-23T09:28:56.295Z,5.26
2022-12-23T09:31:23.640Z,5.05
2022-12-23T09:33:52.312Z,5.12
2022-12-23T09:36:19.207Z,4.97
2022-12-23T09:38:46.717Z,5.17
2022-12-23T09:41:40.264Z,5.17
2022-12-23T09:44:34.218Z,5.07
2022-12-23T09:47:06.233Z,5.13
2022-12-23T09:49:33.868Z,4.99
2022-12-23T09:52:06.266Z,5.09
2022-12-23T09:54:46.105Z,5.05
2022-12-23T09:57:36.543Z,5.13
2022-12-23T10:00:07.062Z,5.05
2022-12-23T10:02:52.223Z,5.02
2022-12-23T10:05:56.830Z,5.08
2022-12-23T10:08:39.545Z,5.05
2022-12-23T10:11:19.093Z,4.96
2022-12-23T10:13:52.851Z,5.15
2022-12-23T10:16:25.702Z,5.28
2022-12-23T10:19:22.865Z,5.26
2022-12-23T10:21:52.795Z,5.25
2022-12-23T10:24:25.178Z,5.23
2022-12-23T10:26:51.631Z,5.25
2022-12-23T10:29:20.499Z,5.25
2022-12-23T10:32:11.581Z,5.32
2022-12-23T10:34:44.214Z,5.31
2022-12-23T10:37:13.850Z,5.38
2022-12-23T10:40:13.927Z,5.18
2022-12-23T10:42:43.655Z,5.35
2022-12-23T10:45:12.983Z,5.38
2022-12-23T10:48:14.777Z,5.44
2022-12-23T10:51:00.317Z,5.36
2022-12-23T10:53:40.996Z,5.36
2022-12-23T10:56:08.653Z,5.22
2022-12-23T10:58:40.472Z,5.36
2022-12-23T11:01:14.975Z,5.33
2022-12-23T11:03:49.371Z,5.37
2022-12-23T11:06:16.072Z,5.35
2022-12-23T11:08:42.603Z,5.46
2022-12-23T11:11:09.164Z,5.41
2022-12-23T11:13:41.130Z,5.45
2022-12-23T11:16:15.217Z,5.32
2022-12-23T11:18:57.527Z,5.47
2022-12-23T11:21:24.107Z,5.57
2022-12-23T11:24:16.949Z,5.46
2022-12-23T11:26:45.792Z,5.52
2022-12-23T11:29:36.286Z,5.33
2022-12-23T11:32:15.267Z,5.43
2022-12-23T11:34:45.202Z,5.53
2022-12-23T11:37:25.436Z,5.51
2022-12-23T11:39:52.038Z,5.58
2022-12-23T11:42:24.464Z,5.58
2022-12-23T11:44:52.702Z,5.58
2022-12-23T11:47:22.260Z,5.66
2022-12-23T11:49:54.006Z,5.68
2022-12-23T11:52:22.929Z,5.74
2022-12-23T11:54:58.336Z,5.63
2022-12-23T11:57:32.336Z,5.56
2022-12-23T12:00:02.282Z,5.82
2022-12-23T12:02:40.174Z,5.53
2022-12-23T12:05:22.640Z,5.44
2022-12-23T12:07:50.222Z,5.61
2022-12-23T12:10:28.535Z,5.63
2022-12-23T12:13:03.312Z,5.72
2022-12-23T12:15:43.421Z,5.52
2022-12-23T12:18:14.627Z,5.57
2022-12-23T12:20:45.372Z,5.67
2022-12-23T12:23:17.212Z,5.66
2022-12-23T12:25:58.153Z,5.70
2022-12-23T12:28:29.741Z,5.66
2022-12-23T12:31:05.377Z,5.56
2022-12-23T12:33:36.001Z,5.74
2022-12-23T12:36:11.962Z,5.74
2022-12-23T12:38:40.071Z,5.59
2022-12-23T12:41:28.249Z,5.61
2022-12-23T12:44:23.702Z,5.45
2022-12-23T12:47:04.168Z,5.47
2022-12-23T12:49:49.814Z,5.44
2022-12-23T12:52:21.808Z,5.46
2022-12-23T12:55:00.503Z,5.56
2022-12-23T12:57:35.071Z,5.51
2022-12-23T13:00:06.479Z,5.58
2022-12-23T13:02:55.184Z,5.53
2022-12-23T13:05:53.933Z,5.59
2022-12-23T13:08:21.044Z,5.76
2022-12-23T13:10:56.035Z,5.88
2022-12-23T13:13:54.670Z,5.90
2022-12-23T13:16:24.208Z,5.91
2022-12-23T13:18:58.675Z,5.83
2022-12-23T13:21:40.459Z,5.69
2022-12-23T13:24:24.490Z,5.87
2022-12-23T13:27:12.303Z,5.96
2022-12-23T13:30:07.007Z,5.78
2022-12-23T13:32:39.544Z,5.91
2022-12-23T13:35:34.095Z,5.69
2022-12-23T13:38:48.205Z,5.77
2022-12-23T13:41:34.603Z,5.88
2022-12-23T13:44:05.241Z,5.79
2022-12-23T13:46:52.911Z,5.77
2022-12-23T13:50:13.489Z,5.85
2022-12-23T13:53:07.449Z,5.86
2022-12-23T13:56:10.001Z,5.86
2022-12-23T13:58:38.952Z,5.80
2022-12-23T14:01:08.555Z,5.74
2022-12-23T14:03:37.020Z,5.74
2022-12-23T14:06:23.446Z,5.74
2022-12-23T14:08:51.066Z,5.76
2022-12-23T14:11:25.549Z,5.72
2022-12-23T14:13:52.091Z,5.99
2022-12-23T14:16:40.221Z,5.66
2022-12-23T14:19:34.202Z,5.68
2022-12-23T14:22:28.720Z,5.53
2022-12-23T14:25:13.856Z,5.66
2022-12-23T14:28:01.754Z,5.48
2022-12-23T14:30:38.742Z,5.40
2022-12-23T14:33:24.079Z,5.36
2022-12-23T14:36:12.834Z,5.28
2022-12-23T14:38:39.484Z,5.21
2022-12-23T14:41:23.025Z,5.24
2022-12-23T14:43:55.681Z,5.27
2022-12-23T14:46:34.102Z,5.36
2022-12-23T14:49:29.959Z,5.41
2022-12-23T14:51:50.896Z,5.28
2022-12-23T14:54:18.183Z,5.44
2022-12-23T14:56:47.444Z,5.34
2022-12-23T14:59:29.977Z,5.35
2022-12-23T15:02:22.979Z,5.48
2022-12-23T15:04:55.259Z,5.48
2022-12-23T15:07:28.472Z,5.45
2022-12-23T15:10:01.343Z,5.48
2022-12-23T15:12:34.572Z,5.58
2022-12-23T15:15:05.428Z,5.55
2022-12-23T15:17:37.232Z,5.56
2022-12-23T15:20:13.799Z,5.57
2022-12-23T15:22:42.989Z,5.50
2022-12-23T15:25:39.515Z,5.48
2022-12-23T15:28:06.551Z,5.49
2022-12-23T15:30:36.953Z,5.54
2022-12-23T15:33:27.966Z,5.51
2022-12-23T15:35:53.686Z,5.49
2022-12-23T15:38:21.620Z,5.52
2022-12-23T15:41:04.724Z,5.39
2022-12-23T15:43:31.886Z,5.44
2022-12-23T15:46:08.512Z,5.31
2022-12-23T15:48:35.368Z,5.27
2022-12-23T15:51:09.373Z,5.39
2022-12-23T15:53:38.279Z,5.34
2022-12-23T15:56:10.512Z,5.31
2022-12-23T15:58:39.974Z,5.43
2022-12-23T16:01:07.077Z,5.46
2022-12-23T16:03:39.657Z,5.32
2022-12-23T16:06:31.933Z,5.39
2022-12-23T16:09:01.951Z,5.34
2022-12-23T16:11:50.405Z,5.28
2022-12-23T16:14:35.722Z,5.27
2022-12-23T16:17:08.157Z,5.25
2022-12-23T16:19:46.327Z,5.15
2022-12-23T16:22:27.097Z,5.52
2022-12-23T16:24:56.698Z,5.40
2022-12-23T16:27:50.536Z,5.58
2022-12-23T16:30:31.084Z,5.46
2022-12-23T16:32:59.675Z,5.44
2022-12-23T16:35:36.601Z,5.54
2022-12-23T16:38:21.508Z,5.24
2022-12-23T16:40:50.395Z,5.10
2022-12-23T16:43:18.991Z,5.42
2022-12-23T16:45:47.071Z,5.52
2022-12-23T16:48:16.565Z,5.42
2022-12-23T16:50:43.126Z,5.57
2022-12-23T16:53:13.760Z,5.44
2022-12-23T16:55:46.244Z,5.38
2022-12-23T16:58:17.059Z,5.30
2022-12-23T17:00:43.714Z,5.42
2022-12-23T17:03:15.929Z,5.42
2022-12-23T17:05:42.901Z,5.23
2022-12-23T17:08:10.343Z,5.30
2022-12-23T17:10:38.125Z,5.31
2022-12-23T17:13:04.713Z,5.34
2022-12-23T17:15:31.340Z,5.30
2022-12-23T17:17:58.052Z,5.21
2022-12-23T17:20:24.827Z,5.09
2022-12-23T17:22:53.810Z,5.00
2022-12-23T17:25:26.328Z,4.90
2022-12-23T17:27:53.670Z,4.72
2022-12-23T17:30:22.747Z,4.72
2022-12-23T17:32:55.900Z,4.63
2022-12-23T17:35:23.440Z,4.53
2022-12-23T17:37:50.182Z,4.62
2022-12-23T17:40:17.789Z,4.59
2022-12-23T17:42:45.335Z,4.54
2022-12-23T17:45:31.099Z,4.49
2022-12-23T17:47:57.946Z,4.29
2022-12-23T17:50:24.911Z,4.36
2022-12-23T17:52:52.550Z,4.28
2022-12-23T17:55:23.127Z,4.32
2022-12-23T17:57:50.270Z,4.16
2022-12-23T18:00:25.444Z,4.02
2022-12-23T18:02:58.311Z,4.07
2022-12-23T18:05:27.734Z,3.89
2022-12-23T18:07:55.596Z,3.75
2022-12-23T18:10:25.130Z,3.63
2022-12-23T18:13:03.553Z,3.71
2022-12-23T18:15:33.093Z,3.76
2022-12-23T18:17:59.671Z,3.60
2022-12-23T18:20:26.503Z,3.57
2022-12-23T18:22:54.380Z,3.53
2022-12-23T18:25:25.930Z,3.52
2022-12-23T18:27:53.805Z,3.47
2022-12-23T18:30:21.421Z,3.54
2022-12-23T18:32:48.997Z,3.55
2022-12-23T18:35:33.012Z,3.47
2022-12-23T18:38:00.183Z,3.37
2022-12-23T18:40:32.552Z,3.34
2022-12-23T18:42:59.680Z,3.41
2022-12-23T18:45:37.858Z,3.35
2022-12-23T18:48:08.623Z,3.38
2022-12-23T18:50:38.587Z,3.48
2022-12-23T18:53:06.314Z,3.46
2022-12-23T18:55:33.272Z,3.46
2022-12-23T18:58:00.657Z,3.31
2022-12-23T19:00:32.841Z,3.54
2022-12-23T19:02:59.556Z,3.29
2022-12-23T19:05:28.257Z,3.27
2022-12-23T19:07:58.933Z,3.41
2022-12-23T19:10:28.944Z,3.05
2022-12-23T19:12:56.191Z,3.16
2022-12-23T19:15:23.719Z,3.13
2022-12-23T19:17:50.588Z,3.11
2022-12-23T19:20:20.345Z,3.07
2022-12-23T19:22:48.665Z,3.03
2022-12-23T19:25:18.857Z,2.99
2022-12-23T19:27:46.144Z,2.96
2022-12-23T19:30:25.461Z,2.98
2022-12-23T19:32:53.357Z,2.85
2022-12-23T19:35:20.777Z,2.91
2022-12-23T19:37:47.312Z,2.91
2022-12-23T19:40:13.916Z,2.94
2022-12-23T19:42:41.800Z,2.89
2022-12-23T19:45:09.794Z,2.97
2022-12-23T19:47:36.831Z,2.91
2022-12-23T19:50:05.217Z,2.91
2022-12-23T19:52:31.834Z,2.77
2022-12-23T19:54:58.332Z,2.83
2022-12-23T19:57:24.920Z,2.89
2022-12-23T19:59:54.662Z,2.89
2022-12-23T20:02:21.208Z,2.86
2022-12-23T20:04:47.776Z,2.90
2022-12-23T20:07:14.360Z,2.79
2022-12-23T20:09:40.915Z,2.80
2022-12-23T20:12:07.861Z,2.75
2022-12-23T20:14:34.716Z,2.77
2022-12-23T20:17:01.485Z,2.79
2022-12-23T20:19:28.306Z,2.74
2022-12-23T20:21:55.007Z,2.63
2022-12-23T20:24:21.606Z,2.68
2022-12-23T20:26:48.173Z,2.52
2022-12-23T20:29:15.213Z,2.41
2022-12-23T20:31:43.695Z,2.41
2022-12-23T20:34:15.945Z,2.57
2022-12-23T20:36:42.690Z,2.54
2022-12-23T20:39:10.939Z,2.42
2022-12-23T20:41:39.705Z,2.21
2022-12-23T20:44:34.028Z,2.09
2022-12-23T20:46:55.268Z,2.01
2022-12-23T20:49:21.829Z,2.08
2022-12-23T20:51:48.401Z,1.99
2022-12-23T20:54:14.938Z,2.01
2022-12-23T20:56:42.399Z,2.02
2022-12-23T20:59:08.978Z,1.81
2022-12-23T21:01:38.306Z,1.75
2022-12-23T21:04:07.925Z,1.68
2022-12-23T21:06:34.947Z,1.63
2022-12-23T21:09:04.160Z,1.65
2022-12-23T21:11:33.649Z,1.59
2022-12-23T21:14:06.852Z,1.54
2022-12-23T21:16:36.103Z,1.73
2022-12-23T21:19:03.399Z,1.33
2022-12-23T21:21:31.689Z,1.09
2022-12-23T21:24:00.521Z,1.20
2022-12-23T21:26:28.850Z,1.34
2022-12-23T21:28:59.199Z,1.47
2022-12-23T21:31:26.679Z,1.75
2022-12-23T21:33:55.111Z,1.63
2022-12-23T21:36:25.736Z,1.64
2022-12-23T21:38:52.535Z,1.56
2022-12-23T21:41:21.609Z,1.71
2022-12-23T21:43:50.105Z,1.41
2022-12-23T21:46:19.212Z,1.41
2022-12-23T21:48:46.451Z,1.27
2022-12-23T21:51:16.303Z,1.05
2022-12-23T21:53:45.494Z,0.81
2022-12-23T21:56:14.488Z,1.09
2022-12-23T21:58:41.467Z,1.01
2022-12-23T22:01:14.000Z,1.08
2022-12-23T22:03:41.470Z,1.21
2022-12-23T22:06:17.114Z,1.32
2022-12-23T22:08:43.836Z,1.37
2022-12-23T22:11:16.192Z,1.45
2022-12-23T22:13:43.752Z,1.54
2022-12-23T22:16:14.930Z,1.59
2022-12-23T22:18:41.927Z,1.61
2022-12-23T22:21:11.199Z,1.61
2022-12-23T22:23:38.195Z,1.71
2022-12-23T22:26:05.568Z,1.59
2022-12-23T22:28:33.276Z,1.56
2022-12-23T22:31:09.056Z,1.53
2022-12-23T22:33:35.634Z,1.54
2022-12-23T22:36:02.316Z,1.40
2022-12-23T22:38:28.913Z,1.45
2022-12-23T22:40:57.764Z,1.39
2022-12-23T22:43:24.466Z,1.35
2022-12-23T22:45:58.743Z,1.41
2022-12-23T22:48:26.522Z,1.61
2022-12-23T22:51:03.109Z,1.55
2022-12-23T22:53:30.199Z,1.72
2022-12-23T22:55:58.340Z,1.74
2022-12-23T22:58:25.088Z,1.70
2022-12-23T23:00:51.691Z,1.76
2022-12-23T23:03:18.265Z,1.74
2022-12-23T23:05:44.851Z,1.75
2022-12-23T23:08:12.326Z,1.81
2022-12-23T23:10:38.866Z,1.58
2022-12-23T23:13:05.535Z,1.54
2022-12-23T23:15:34.317Z,1.53
2022-12-23T23:18:00.805Z,1.38
2022-12-23T23:20:27.443Z,1.13
2022-12-23T23:22:53.977Z,1.29
2022-12-23T23:25:22.717Z,1.05
2022-12-23T23:27:49.312Z,0.80
2022-12-23T23:30:16.155Z,0.97
2022-12-23T23:32:43.404Z,0.90
2022-12-23T23:35:11.041Z,1.12
2022-12-23T23:37:37.753Z,1.08
2022-12-23T23:40:04.902Z,1.10
2022-12-23T23:42:31.461Z,1.24
2022-12-23T23:44:58.195Z,1.11
2022-12-23T23:47:24.803Z,1.01
2022-12-23T23:49:51.404Z,0.99
2022-12-23T23:52:17.949Z,0.78
2022-12-23T23:54:44.559Z,0.78
2022-12-23T23:57:11.159Z,0.87
2022-12-23T23:59:37.716Z,0.77
